createdAt,value
2022-12-28T00:02:03.142Z,-1.55
2022-12-28T00:05:04.912Z,-1.55
2022-12-28T00:08:06.444Z,-1.45
2022-12-28T00:11:18.667Z,-1.48
2022-12-28T00:14:25.934Z,-1.31
2022-12-28T00:17:27.617Z,-1.33
2022-12-28T00:20:29.137Z,-1.30
2022-12-28T00:23:30.955Z,-1.30
2022-12-28T00:26:33.503Z,-1.30
2022-12-28T00:29:35.028Z,-1.18
2022-12-28T00:32:36.553Z,-1.30
2022-12-28T00:35:38.084Z,-1.34
2022-12-28T00:38:39.764Z,-1.31
2022-12-28T00:41:41.288Z,-0.76
2022-12-28T00:44:42.825Z,-0.84
2022-12-28T00:47:44.364Z,-1.03
2022-12-28T00:50:45.892Z,-1.23
2022-12-28T00:53:47.494Z,-1.24
2022-12-28T00:56:49.019Z,-1.41
2022-12-28T00:59:50.575Z,-1.28
2022-12-28T01:02:52.135Z,-1.26
2022-12-28T01:05:54.701Z,-1.21
2022-12-28T01:08:56.240Z,-1.15
2022-12-28T01:11:57.767Z,-1.11
2022-12-28T01:14:59.359Z,-1.04
2022-12-28T01:18:01.138Z,-0.93
2022-12-28T01:21:24.618Z,-0.96
2022-12-28T01:24:26.178Z,-0.92
2022-12-28T01:27:27.684Z,-0.67
2022-12-28T01:30:30.456Z,-0.49
2022-12-28T01:33:31.877Z,-0.08
2022-12-28T01:36:35.037Z,-0.09
2022-12-28T01:39:36.583Z,-0.19
2022-12-28T01:42:38.551Z,-0.03
2022-12-28T01:45:40.096Z,0.17
2022-12-28T01:48:46.111Z,0.46
2022-12-28T01:52:00.191Z,0.56
2022-12-28T01:55:14.210Z,0.46
2022-12-28T01:58:19.454Z,0.61
2022-12-28T02:01:21.044Z,0.61
2022-12-28T02:04:22.639Z,0.65
2022-12-28T02:07:35.681Z,0.67
2022-12-28T02:10:42.683Z,0.83
2022-12-28T02:13:48.028Z,0.99
2022-12-28T02:16:49.525Z,0.99
2022-12-28T02:19:51.103Z,1.02
2022-12-28T02:23:16.224Z,1.03
2022-12-28T02:26:31.862Z,1.02
2022-12-28T02:29:40.776Z,1.11
2022-12-28T02:33:10.741Z,1.04
2022-12-28T02:36:18.696Z,1.11
2022-12-28T02:39:25.915Z,1.00
2022-12-28T02:42:27.459Z,0.92
2022-12-28T02:46:03.841Z,0.90
2022-12-28T02:49:37.407Z,0.91
2022-12-28T02:52:46.768Z,1.08
2022-12-28T02:56:18.066Z,1.13
2022-12-28T02:59:38.998Z,1.07
2022-12-28T03:02:43.601Z,1.13
2022-12-28T03:06:06.837Z,1.28
2022-12-28T03:09:18.037Z,1.32
2022-12-28T03:12:40.719Z,1.31
2022-12-28T03:15:42.228Z,1.30
2022-12-28T03:19:02.639Z,1.33
2022-12-28T03:22:22.731Z,1.33
2022-12-28T03:25:44.736Z,1.29
2022-12-28T03:29:04.896Z,1.33
2022-12-28T03:32:06.470Z,1.43
2022-12-28T03:35:08.304Z,1.43
2022-12-28T03:38:10.994Z,1.39
2022-12-28T03:41:20.525Z,1.49
2022-12-28T03:44:24.630Z,1.41
2022-12-28T03:47:26.181Z,1.35
2022-12-28T03:50:27.700Z,1.36
2022-12-28T03:53:35.987Z,1.33
2022-12-28T03:56:37.568Z,1.59
2022-12-28T03:59:39.067Z,1.62
2022-12-28T04:02:40.640Z,1.65
2022-12-28T04:05:42.207Z,1.69
2022-12-28T04:08:44.448Z,1.82
2022-12-28T04:11:45.997Z,1.72
2022-12-28T04:14:47.513Z,1.81
2022-12-28T04:17:49.043Z,1.70
2022-12-28T04:20:50.576Z,1.67
2022-12-28T04:23:52.171Z,1.55
2022-12-28T04:26:53.781Z,1.50
2022-12-28T04:29:55.433Z,1.55
2022-12-28T04:32:57.001Z,1.38
2022-12-28T04:36:08.965Z,1.30
2022-12-28T04:39:10.552Z,1.12
2022-12-28T04:42:12.062Z,1.07
2022-12-28T04:45:20.054Z,0.99
2022-12-28T04:48:23.600Z,1.04
2022-12-28T04:51:26.190Z,0.97
2022-12-28T04:54:27.746Z,1.08
2022-12-28T04:57:29.286Z,1.10
2022-12-28T05:00:30.859Z,1.15
2022-12-28T05:03:32.512Z,1.19
2022-12-28T05:06:34.888Z,1.10
2022-12-28T05:09:36.376Z,1.04
2022-12-28T05:12:37.902Z,1.04
2022-12-28T05:15:39.448Z,1.00
2022-12-28T05:18:40.995Z,1.00
2022-12-28T05:21:42.511Z,1.06
2022-12-28T05:24:44.055Z,0.98
2022-12-28T05:27:45.588Z,0.93
2022-12-28T05:30:47.091Z,0.97
2022-12-28T05:33:48.746Z,0.94
2022-12-28T05:36:50.272Z,0.93
2022-12-28T05:39:51.836Z,0.95
2022-12-28T05:42:53.377Z,1.02
2022-12-28T05:45:54.912Z,1.13
2022-12-28T05:48:56.640Z,1.21
2022-12-28T05:51:58.153Z,1.16
2022-12-28T05:54:59.650Z,1.15
2022-12-28T05:58:01.190Z,1.21
2022-12-28T06:01:09.372Z,1.20
2022-12-28T06:04:15.992Z,1.14
2022-12-28T06:07:17.525Z,1.17
2022-12-28T06:10:19.030Z,1.23
2022-12-28T06:13:20.562Z,1.22
2022-12-28T06:16:29.329Z,1.28
2022-12-28T06:19:30.873Z,1.36
2022-12-28T06:22:32.404Z,1.35
2022-12-28T06:25:33.959Z,1.56
2022-12-28T06:28:38.972Z,1.56
2022-12-28T06:31:43.139Z,1.40
2022-12-28T06:34:44.677Z,1.38
2022-12-28T06:37:47.798Z,1.36
2022-12-28T06:41:12.430Z,1.28
2022-12-28T06:44:11.905Z,1.22
2022-12-28T06:47:13.348Z,1.24
2022-12-28T06:50:14.887Z,1.37
2022-12-28T06:53:16.875Z,1.38
2022-12-28T06:56:20.652Z,1.35
2022-12-28T06:59:22.213Z,1.36
2022-12-28T07:02:23.894Z,1.35
2022-12-28T07:05:25.555Z,1.38
2022-12-28T07:08:27.577Z,1.43
2022-12-28T07:11:29.181Z,1.43
2022-12-28T07:14:32.289Z,1.53
2022-12-28T07:17:33.841Z,1.54
2022-12-28T07:20:40.189Z,1.55
2022-12-28T07:23:42.296Z,1.58
2022-12-28T07:26:43.832Z,1.46
2022-12-28T07:33:09.474Z,1.47
2022-12-28T07:36:15.942Z,1.53
2022-12-28T07:39:17.460Z,1.55
2022-12-28T07:42:18.999Z,1.58
2022-12-28T07:45:20.518Z,1.61
2022-12-28T07:48:22.041Z,1.71
2022-12-28T07:51:28.589Z,1.79
2022-12-28T07:54:30.115Z,1.92
2022-12-28T07:57:31.642Z,1.96
2022-12-28T08:00:33.172Z,2.12
2022-12-28T08:03:34.817Z,2.12
2022-12-28T08:06:37.826Z,2.13
2022-12-28T08:09:39.341Z,2.15
2022-12-28T08:12:40.889Z,2.22
2022-12-28T08:15:42.424Z,2.40
2022-12-28T08:18:44.025Z,2.50
2022-12-28T08:21:45.906Z,2.50
2022-12-28T08:24:47.425Z,2.61
2022-12-28T08:27:48.950Z,2.66
2022-12-28T08:30:50.493Z,2.70
2022-12-28T08:33:52.970Z,2.80
2022-12-28T08:36:55.226Z,2.92
2022-12-28T08:39:56.757Z,2.99
2022-12-28T08:43:01.499Z,3.04
2022-12-28T08:46:05.810Z,3.12
2022-12-28T08:49:07.523Z,3.35
2022-12-28T08:52:09.066Z,3.56
2022-12-28T08:55:10.566Z,3.85
2022-12-28T08:58:12.188Z,4.05
2022-12-28T09:01:14.596Z,4.19
2022-12-28T09:04:16.971Z,4.25
2022-12-28T09:07:18.504Z,4.40
2022-12-28T09:10:20.030Z,4.50
2022-12-28T09:13:21.596Z,4.66
2022-12-28T09:16:25.627Z,4.89
2022-12-28T09:19:27.173Z,4.97
2022-12-28T09:22:30.823Z,5.07
2022-12-28T09:25:32.345Z,5.29
2022-12-28T09:28:33.876Z,5.32
2022-12-28T09:31:40.241Z,5.27
2022-12-28T09:34:41.874Z,5.39
2022-12-28T09:37:43.413Z,5.52
2022-12-28T09:40:44.935Z,5.60
2022-12-28T09:43:46.467Z,5.82
2022-12-28T09:47:02.416Z,5.90
2022-12-28T09:50:16.391Z,6.01
2022-12-28T09:53:34.348Z,6.17
2022-12-28T09:56:41.132Z,6.34
2022-12-28T09:59:42.701Z,6.46
2022-12-28T10:02:45.624Z,6.70
2022-12-28T10:05:47.244Z,7.10
2022-12-28T10:09:00.144Z,7.98
2022-12-28T10:12:06.262Z,8.34
2022-12-28T10:15:12.327Z,9.31
2022-12-28T10:18:14.811Z,10.01
2022-12-28T10:21:22.338Z,10.69
2022-12-28T10:24:33.241Z,11.11
2022-12-28T10:27:34.886Z,11.29
2022-12-28T10:30:45.611Z,11.92
2022-12-28T10:33:51.180Z,12.15
2022-12-28T10:36:52.762Z,11.47
2022-12-28T10:40:16.248Z,11.53
2022-12-28T10:43:19.255Z,11.43
2022-12-28T10:46:22.562Z,11.29
2022-12-28T10:49:25.749Z,12.36
2022-12-28T10:52:27.520Z,13.53
2022-12-28T10:55:30.932Z,14.04
2022-12-28T10:58:33.350Z,13.60
2022-12-28T11:01:35.255Z,14.12
2022-12-28T11:04:36.793Z,14.57
2022-12-28T11:07:39.023Z,14.41
2022-12-28T11:10:40.578Z,13.55
2022-12-28T11:13:42.760Z,12.29
2022-12-28T11:16:44.475Z,10.78
2022-12-28T11:19:46.973Z,10.82
2022-12-28T11:22:48.587Z,10.36
2022-12-28T11:25:50.111Z,10.29
2022-12-28T11:28:51.985Z,9.86
2022-12-28T11:31:54.061Z,9.61
2022-12-28T11:34:55.671Z,9.43
2022-12-28T11:37:59.179Z,9.43
2022-12-28T11:41:00.706Z,9.30
2022-12-28T11:44:05.677Z,9.17
2022-12-28T11:47:16.221Z,9.14
2022-12-28T11:50:36.759Z,9.21
2022-12-28T11:53:47.235Z,9.23
2022-12-28T11:56:51.633Z,9.08
2022-12-28T11:59:53.162Z,9.11
2022-12-28T12:03:01.758Z,9.16
2022-12-28T12:06:03.348Z,8.93
2022-12-28T12:09:04.866Z,8.82
2022-12-28T12:12:18.066Z,8.91
2022-12-28T12:15:22.146Z,8.80
2022-12-28T12:18:24.892Z,8.62
2022-12-28T12:21:35.645Z,8.55
2022-12-28T12:24:43.120Z,8.60
2022-12-28T12:27:52.069Z,8.75
2022-12-28T12:30:53.907Z,8.83
2022-12-28T12:33:58.381Z,8.96
2022-12-28T12:37:37.061Z,8.99
2022-12-28T12:40:59.995Z,9.07
2022-12-28T12:44:34.631Z,9.05
2022-12-28T12:47:49.389Z,9.17
2022-12-28T12:51:14.541Z,9.14
2022-12-28T12:54:37.591Z,9.13
2022-12-28T12:57:49.702Z,9.04
2022-12-28T13:01:25.319Z,9.19
2022-12-28T13:04:28.575Z,9.11
2022-12-28T13:07:30.157Z,8.99
2022-12-28T13:10:33.981Z,8.97
2022-12-28T13:13:36.763Z,8.93
2022-12-28T13:16:38.295Z,8.89
2022-12-28T13:19:39.811Z,8.90
2022-12-28T13:22:45.609Z,8.84
2022-12-28T13:25:48.747Z,8.77
2022-12-28T13:28:52.271Z,8.91
2022-12-28T13:31:53.867Z,8.98
2022-12-28T13:34:55.369Z,8.93
2022-12-28T13:37:59.981Z,8.80
2022-12-28T13:41:01.544Z,8.73
2022-12-28T13:44:21.189Z,8.57
2022-12-28T13:47:33.189Z,8.51
2022-12-28T13:50:34.751Z,8.47
2022-12-28T13:53:36.285Z,8.49
2022-12-28T13:56:38.077Z,8.34
2022-12-28T13:59:39.608Z,8.26
2022-12-28T14:02:41.574Z,8.25
2022-12-28T14:05:48.247Z,8.41
2022-12-28T14:08:50.661Z,8.52
2022-12-28T14:11:52.239Z,8.41
2022-12-28T14:14:54.569Z,8.17
2022-12-28T14:17:55.976Z,8.30
2022-12-28T14:20:58.186Z,8.33
2022-12-28T14:24:10.654Z,8.31
2022-12-28T14:27:12.171Z,8.34
2022-12-28T14:30:34.363Z,8.21
2022-12-28T14:33:38.350Z,8.12
2022-12-28T14:36:43.027Z,8.18
2022-12-28T14:39:44.656Z,8.08
2022-12-28T14:42:49.491Z,8.03
2022-12-28T14:46:07.057Z,7.97
2022-12-28T14:49:30.960Z,7.78
2022-12-28T14:52:33.766Z,7.78
2022-12-28T14:55:38.206Z,7.77
2022-12-28T14:58:58.635Z,7.88
2022-12-28T15:02:00.362Z,7.80
2022-12-28T15:05:02.183Z,7.65
2022-12-28T15:08:03.830Z,7.57
2022-12-28T15:14:12.019Z,7.52
2022-12-28T15:17:13.567Z,7.64
2022-12-28T15:20:15.389Z,7.56
2022-12-28T15:23:17.016Z,7.58
2022-12-28T15:26:18.678Z,7.81
2022-12-28T15:29:39.380Z,7.73
2022-12-28T15:32:41.847Z,7.46
2022-12-28T15:35:43.371Z,7.25
2022-12-28T15:38:45.913Z,7.10
2022-12-28T15:41:47.476Z,6.90
2022-12-28T15:44:51.081Z,6.75
2022-12-28T15:47:54.235Z,6.47
2022-12-28T15:50:55.761Z,6.21
2022-12-28T15:53:57.451Z,6.05
2022-12-28T15:56:59.166Z,5.88
2022-12-28T16:00:00.800Z,5.81
2022-12-28T16:03:02.497Z,5.94
2022-12-28T16:06:05.717Z,5.75
2022-12-28T16:09:07.290Z,5.62
2022-12-28T16:12:20.057Z,5.50
2022-12-28T16:15:21.735Z,5.36
2022-12-28T16:18:23.254Z,5.40
2022-12-28T16:21:25.736Z,5.39
2022-12-28T16:24:28.981Z,5.24
2022-12-28T16:27:30.579Z,5.19
2022-12-28T16:30:32.118Z,5.18
2022-12-28T16:33:33.645Z,5.11
2022-12-28T16:36:35.235Z,5.07
2022-12-28T16:39:37.988Z,4.99
2022-12-28T16:42:39.572Z,4.99
2022-12-28T16:45:42.334Z,4.97
2022-12-28T16:48:43.954Z,4.99
2022-12-28T16:51:45.817Z,4.87
2022-12-28T16:54:47.346Z,4.78
2022-12-28T16:57:49.555Z,4.83
2022-12-28T17:00:51.087Z,4.72
2022-12-28T17:03:52.692Z,4.53
2022-12-28T17:06:54.249Z,4.47
2022-12-28T17:09:55.763Z,4.42
2022-12-28T17:12:57.309Z,4.52
2022-12-28T17:16:01.947Z,4.57
2022-12-28T17:19:03.736Z,4.47
2022-12-28T17:22:05.309Z,4.38
2022-12-28T17:25:07.677Z,4.27
2022-12-28T17:28:09.272Z,4.22
2022-12-28T17:31:14.346Z,4.10
2022-12-28T17:34:15.876Z,4.05
2022-12-28T17:37:17.749Z,3.97
2022-12-28T17:40:19.915Z,4.01
2022-12-28T17:43:21.454Z,3.92
2022-12-28T17:46:24.868Z,3.92
2022-12-28T17:49:26.591Z,3.89
2022-12-28T17:52:28.120Z,3.87
2022-12-28T17:55:29.785Z,3.89
2022-12-28T17:58:31.363Z,3.86
2022-12-28T18:01:32.969Z,3.76
2022-12-28T18:04:35.293Z,3.69
2022-12-28T18:07:36.817Z,3.70
2022-12-28T18:10:38.337Z,3.79
2022-12-28T18:13:40.436Z,3.76
2022-12-28T18:16:42.052Z,3.82
2022-12-28T18:19:43.618Z,3.74
2022-12-28T18:22:45.250Z,3.63
2022-12-28T18:25:46.760Z,3.56
2022-12-28T18:28:48.357Z,3.50
2022-12-28T18:31:49.960Z,3.44
2022-12-28T18:34:51.630Z,3.43
2022-12-28T18:37:53.408Z,3.42
2022-12-28T18:40:55.956Z,3.31
2022-12-28T18:43:59.666Z,3.29
2022-12-28T18:47:01.183Z,3.31
2022-12-28T18:50:04.876Z,3.28
2022-12-28T18:53:06.418Z,3.26
2022-12-28T18:56:18.387Z,3.21
2022-12-28T18:59:20.052Z,3.21
2022-12-28T19:02:21.658Z,3.27
2022-12-28T19:05:23.318Z,3.19
2022-12-28T19:08:25.190Z,3.14
2022-12-28T19:11:29.401Z,3.09
2022-12-28T19:14:34.322Z,3.06
2022-12-28T19:17:36.203Z,3.05
2022-12-28T19:20:37.707Z,3.03
2022-12-28T19:23:39.229Z,3.15
2022-12-28T19:26:40.800Z,3.21
2022-12-28T19:29:42.484Z,3.23
2022-12-28T19:32:44.037Z,3.19
2022-12-28T19:35:45.584Z,3.10
2022-12-28T19:38:47.522Z,3.19
2022-12-28T19:41:51.751Z,3.14
2022-12-28T19:44:53.309Z,2.97
2022-12-28T19:47:54.842Z,3.09
2022-12-28T19:50:56.401Z,3.12
2022-12-28T19:53:57.978Z,3.21
2022-12-28T19:56:59.501Z,3.20
2022-12-28T20:00:01.074Z,3.08
2022-12-28T20:03:02.700Z,3.05
2022-12-28T20:06:12.116Z,3.08
2022-12-28T20:09:13.946Z,3.03
2022-12-28T20:12:15.465Z,3.23
2022-12-28T20:15:18.533Z,2.88
2022-12-28T20:18:20.079Z,3.02
2022-12-28T20:21:22.374Z,3.06
2022-12-28T20:24:23.911Z,3.11
2022-12-28T20:27:30.387Z,3.19
2022-12-28T20:30:32.257Z,3.23
2022-12-28T20:33:36.513Z,3.21
2022-12-28T20:36:38.102Z,3.20
2022-12-28T20:39:39.684Z,3.27
2022-12-28T20:42:59.751Z,3.44
2022-12-28T20:46:01.349Z,3.36
2022-12-28T20:49:02.955Z,3.24
2022-12-28T20:52:04.594Z,3.17
2022-12-28T20:55:08.316Z,3.42
2022-12-28T20:58:09.941Z,3.28
2022-12-28T21:01:12.758Z,3.30
2022-12-28T21:04:14.421Z,3.50
2022-12-28T21:07:16.068Z,3.53
2022-12-28T21:10:17.555Z,3.60
2022-12-28T21:13:19.131Z,3.66
2022-12-28T21:16:20.689Z,3.82
2022-12-28T21:19:22.623Z,3.96
2022-12-28T21:22:24.172Z,4.06
2022-12-28T21:25:25.686Z,3.99
2022-12-28T21:28:27.261Z,4.00
2022-12-28T21:31:28.760Z,4.10
2022-12-28T21:34:30.342Z,4.01
2022-12-28T21:37:34.720Z,3.99
2022-12-28T21:40:36.257Z,4.10
2022-12-28T21:43:37.766Z,3.95
2022-12-28T21:46:39.379Z,3.94
2022-12-28T21:49:42.983Z,4.13
2022-12-28T21:52:44.569Z,4.11
2022-12-28T21:55:46.429Z,4.10
2022-12-28T21:58:48.067Z,4.18
2022-12-28T22:02:08.368Z,4.15
2022-12-28T22:05:28.710Z,4.20
2022-12-28T22:08:49.299Z,4.42
2022-12-28T22:12:09.457Z,4.76
2022-12-28T22:15:33.132Z,5.38
2022-12-28T22:19:00.804Z,5.51
2022-12-28T22:21:56.230Z,6.35
2022-12-28T22:24:57.794Z,6.43
2022-12-28T22:27:59.589Z,6.62
2022-12-28T22:31:05.299Z,7.78
2022-12-28T22:34:07.620Z,7.58
2022-12-28T22:37:09.112Z,7.38
2022-12-28T22:40:11.276Z,7.11
2022-12-28T22:43:12.803Z,7.73
2022-12-28T22:46:14.356Z,7.60
2022-12-28T22:49:16.257Z,7.60
2022-12-28T22:52:17.747Z,7.50
2022-12-28T22:55:19.295Z,7.77
2022-12-28T22:58:20.833Z,7.68
2022-12-28T23:01:22.410Z,7.46
2022-12-28T23:04:23.993Z,7.33
2022-12-28T23:07:25.521Z,7.28
2022-12-28T23:10:27.045Z,7.60
2022-12-28T23:13:28.834Z,7.71
2022-12-28T23:16:30.417Z,7.79
2022-12-28T23:19:50.591Z,7.61
2022-12-28T23:23:10.674Z,7.48
2022-12-28T23:26:30.537Z,7.34
2022-12-28T23:29:32.345Z,7.68
2022-12-28T23:32:33.887Z,7.88
2022-12-28T23:35:35.438Z,8.06
2022-12-28T23:38:37.173Z,8.18
2022-12-28T23:41:51.055Z,8.28
2022-12-28T23:44:52.789Z,8.28
2022-12-28T23:47:54.386Z,8.20
2022-12-28T23:51:08.033Z,8.22
2022-12-28T23:54:10.053Z,8.24
2022-12-28T23:57:11.579Z,8.14
